Monte Carmelo, Brazil
Current Conditions -  °F | °C
As of 6:35 PM on Thursday 18 Dec 2014 (Local Time) from SBUL Reporting Station
Thunderstorm Thunderstorm  
Wind Chill: 70°   Ceiling: 10000
Heat Index: 70°   Visibility: 6mi
Dew Point: 66°   Wind: 12mph
Humidity: 88%   Direction: 260°W
Pressure: 29.91"   Gusts: NA
Location:  18.72°S, 47.5°W
Report Text: SBUL 182035Z 26010KT 9999 TS VCSH FEW015 FEW025CB SCT070 OVC100 21/19 Q1013
Loading
Personal Weather Stations






























Interactive Weather Map New forecast layout! Learn more

10-Day Weather Forecast

Advertisements
Track Severe Weather on mobile